Gulf Islands Natl Seashore, Florida
Current Conditions -  °F | °C
As of 11:56 PM on Friday 24 Oct 2014 (Local Time) from KNPA Reporting Station
Clear Clear  
Wind Chill: 52°   Ceiling: Unl
Heat Index: 52°   Visibility: 10mi
Dew Point: 47°   Wind: 6mph
Humidity: 83%   Direction: 330°NNW
Pressure: 30.05"   Gusts: NA
Location:  30.33°N, 87.25°W
Report Text: KNPA 250456Z 33005KT 10SM CLR 11/08 A3005 RMK AO2 SLP176 T01110083
Loading
Personal Weather Stations






























Interactive Weather Map
Tropical Storm Tracking
New forecast layout! Learn more

10-Day Weather Forecast

Advertisements
Track Severe Weather on mobile